createdAt,value
2023-05-14T00:03:28.964Z,9.20
2023-05-14T00:08:32.136Z,9.30
2023-05-14T00:13:36.064Z,9.23
2023-05-14T00:18:39.219Z,9.28
2023-05-14T00:23:42.453Z,9.21
2023-05-14T00:28:45.935Z,9.13
2023-05-14T00:33:49.082Z,8.99
2023-05-14T00:38:52.403Z,8.91
2023-05-14T00:43:55.549Z,8.76
2023-05-14T00:48:59.762Z,8.66
2023-05-14T00:54:03.245Z,8.68
2023-05-14T00:59:06.369Z,8.66
2023-05-14T01:04:10.641Z,8.60
2023-05-14T01:09:27.122Z,8.55
2023-05-14T01:14:58.572Z,8.51
2023-05-14T01:20:02.626Z,8.39
2023-05-14T01:25:06.619Z,8.38
2023-05-14T01:30:31.546Z,8.30
2023-05-14T01:35:35.027Z,7.97
2023-05-14T01:40:38.717Z,7.87
2023-05-14T01:45:42.752Z,7.78
2023-05-14T01:50:45.960Z,7.88
2023-05-14T01:55:49.040Z,7.82
2023-05-14T02:00:52.160Z,7.80
2023-05-14T02:05:55.382Z,7.73
2023-05-14T02:10:58.798Z,7.74
2023-05-14T02:16:02.471Z,7.71
2023-05-14T02:21:05.697Z,7.49
2023-05-14T02:26:12.585Z,7.18
2023-05-14T02:31:17.665Z,7.23
2023-05-14T02:36:20.992Z,7.24
2023-05-14T02:41:24.353Z,7.09
2023-05-14T02:46:28.322Z,7.16
2023-05-14T02:51:31.840Z,7.22
2023-05-14T02:56:35.076Z,7.01
2023-05-14T03:01:38.254Z,6.67
2023-05-14T03:06:42.592Z,6.81
2023-05-14T03:11:46.201Z,6.93
2023-05-14T03:16:49.478Z,6.98
2023-05-14T03:21:52.697Z,7.00
2023-05-14T03:26:55.805Z,7.19
2023-05-14T03:31:59.993Z,7.13
2023-05-14T03:37:03.232Z,7.35
2023-05-14T03:42:06.649Z,7.35
2023-05-14T03:47:09.694Z,7.53
2023-05-14T03:52:12.901Z,7.51
2023-05-14T03:57:16.169Z,7.72
2023-05-14T04:02:19.442Z,7.71
2023-05-14T04:07:24.092Z,7.64
2023-05-14T04:12:27.294Z,7.69
2023-05-14T04:17:30.847Z,7.70
2023-05-14T04:22:33.969Z,8.20
2023-05-14T04:27:37.122Z,8.26
2023-05-14T04:32:40.376Z,9.17
2023-05-14T04:37:43.547Z,10.02
2023-05-14T04:42:46.591Z,10.61
2023-05-14T04:47:50.040Z,11.68
2023-05-14T04:52:53.150Z,12.21
2023-05-14T04:57:56.367Z,12.33
2023-05-14T05:02:59.541Z,12.80
2023-05-14T05:08:02.812Z,13.59
2023-05-14T05:13:05.939Z,14.06
2023-05-14T05:18:09.308Z,13.89
2023-05-14T05:23:12.403Z,14.25
2023-05-14T05:28:16.219Z,14.40
2023-05-14T05:33:19.958Z,15.38
2023-05-14T05:38:23.322Z,15.63
2023-05-14T05:43:26.695Z,16.00
2023-05-14T05:48:29.746Z,16.07
2023-05-14T05:53:32.896Z,16.49
2023-05-14T05:58:36.337Z,16.62
2023-05-14T06:03:39.489Z,17.52
2023-05-14T06:08:42.584Z,17.37
2023-05-14T06:13:45.746Z,16.66
2023-05-14T06:18:49.516Z,17.64
2023-05-14T06:23:52.642Z,18.07
2023-05-14T06:28:55.820Z,17.92
2023-05-14T06:33:58.954Z,18.19
2023-05-14T06:39:02.042Z,17.59
2023-05-14T06:44:05.193Z,18.65
2023-05-14T06:49:08.378Z,18.24
2023-05-14T06:54:11.848Z,18.13
2023-05-14T06:59:14.933Z,18.54
2023-05-14T07:04:18.092Z,19.12
2023-05-14T07:09:22.158Z,18.76
2023-05-14T07:14:25.516Z,19.64
2023-05-14T07:19:29.843Z,19.80
2023-05-14T07:24:32.953Z,19.50
2023-05-14T07:29:36.768Z,19.59
2023-05-14T07:34:39.884Z,19.71
2023-05-14T07:39:43.089Z,20.56
2023-05-14T07:44:46.860Z,20.45
2023-05-14T07:49:49.974Z,20.30
2023-05-14T07:54:53.155Z,20.84
2023-05-14T07:59:56.946Z,21.14
2023-05-14T08:05:00.114Z,21.07
2023-05-14T08:10:03.445Z,21.15
2023-05-14T08:15:07.922Z,21.16
2023-05-14T08:20:12.199Z,20.62
2023-05-14T08:25:15.343Z,20.86
2023-05-14T08:30:18.453Z,20.54
2023-05-14T08:35:21.628Z,20.51
2023-05-14T08:40:25.096Z,20.28
2023-05-14T08:45:34.068Z,20.19
2023-05-14T08:50:37.393Z,20.78
2023-05-14T08:55:40.529Z,21.32
2023-05-14T09:00:43.853Z,21.08
2023-05-14T09:05:49.302Z,20.53
2023-05-14T09:10:52.371Z,19.98
2023-05-14T09:15:55.822Z,19.95
2023-05-14T09:20:59.169Z,20.28
2023-05-14T09:26:06.229Z,20.13
2023-05-14T09:31:09.886Z,19.87
2023-05-14T09:36:13.094Z,19.64
2023-05-14T09:41:16.528Z,19.49
2023-05-14T09:46:19.640Z,19.65
2023-05-14T09:51:22.921Z,20.06
2023-05-14T09:56:26.411Z,19.63
2023-05-14T10:01:31.337Z,19.77
2023-05-14T10:06:38.077Z,19.77
2023-05-14T10:11:44.355Z,20.02
2023-05-14T10:16:52.503Z,19.95
2023-05-14T10:21:57.891Z,19.92
2023-05-14T10:27:01.968Z,19.75
2023-05-14T10:32:07.166Z,20.11
2023-05-14T10:37:12.987Z,20.41
2023-05-14T10:42:32.748Z,20.59
2023-05-14T10:47:37.150Z,20.74
2023-05-14T10:52:44.667Z,20.34
2023-05-14T10:57:48.351Z,19.75
2023-05-14T11:02:55.710Z,19.74
2023-05-14T11:07:59.016Z,19.98
2023-05-14T11:13:02.684Z,20.24
2023-05-14T11:18:06.238Z,20.61
2023-05-14T11:23:09.858Z,20.72
2023-05-14T11:28:12.990Z,20.85
2023-05-14T11:33:16.775Z,20.59
2023-05-14T11:38:21.349Z,20.64
2023-05-14T11:43:26.294Z,20.60
2023-05-14T11:48:29.450Z,20.76
2023-05-14T11:53:33.291Z,21.12
2023-05-14T11:58:36.417Z,20.86
2023-05-14T12:03:39.768Z,20.97
2023-05-14T12:08:43.619Z,20.82
2023-05-14T12:13:46.785Z,20.64
2023-05-14T12:18:49.989Z,20.58
2023-05-14T12:24:02.763Z,20.61
2023-05-14T12:29:08.969Z,20.85
2023-05-14T12:34:12.124Z,20.76
2023-05-14T12:39:15.553Z,20.76
2023-05-14T12:44:19.077Z,20.82
2023-05-14T12:49:22.411Z,20.98
2023-05-14T12:54:25.708Z,20.73
2023-05-14T12:59:28.995Z,20.74
2023-05-14T13:04:32.234Z,21.17
2023-05-14T13:09:35.454Z,21.26
2023-05-14T13:14:38.694Z,20.79
2023-05-14T13:19:41.866Z,20.77
2023-05-14T13:24:45.284Z,20.76
2023-05-14T13:29:48.470Z,20.76
2023-05-14T13:34:51.663Z,20.64
2023-05-14T13:39:54.807Z,20.73
2023-05-14T13:44:59.459Z,20.96
2023-05-14T13:50:02.888Z,20.91
2023-05-14T13:55:08.304Z,21.14
2023-05-14T14:00:11.970Z,21.27
2023-05-14T14:05:15.210Z,21.25
2023-05-14T14:10:18.457Z,21.02
2023-05-14T14:15:21.926Z,20.91
2023-05-14T14:20:25.351Z,20.69
2023-05-14T14:25:28.482Z,20.53
2023-05-14T14:30:32.721Z,20.47
2023-05-14T14:35:37.482Z,20.42
2023-05-14T14:40:40.776Z,20.36
2023-05-14T14:45:48.158Z,20.39
2023-05-14T14:50:52.921Z,20.39
2023-05-14T14:55:56.806Z,20.39
2023-05-14T15:01:01.369Z,20.36
2023-05-14T15:06:05.012Z,20.31
2023-05-14T15:11:08.658Z,20.19
2023-05-14T15:16:12.612Z,20.23
2023-05-14T15:21:15.815Z,20.18
2023-05-14T15:26:19.022Z,20.05
2023-05-14T15:31:22.421Z,20.12
2023-05-14T15:36:25.769Z,20.23
2023-05-14T15:41:29.687Z,20.26
2023-05-14T15:46:33.010Z,20.12
2023-05-14T15:51:36.233Z,20.18
2023-05-14T15:56:39.570Z,20.13
2023-05-14T16:01:42.715Z,19.94
2023-05-14T16:06:46.004Z,19.83
2023-05-14T16:11:49.155Z,19.67
2023-05-14T16:16:53.988Z,19.76
2023-05-14T16:21:58.070Z,19.69
